sensor_id;sensor_type;location;lat;lon;timestamp;P1;durP1;ratioP1;P2;durP2;ratioP2
32523;SDS011;18965;52.242;20.886;2023-04-24T00:02:15;20.65;;;9.98;;
32523;SDS011;18965;52.242;20.886;2023-04-24T00:04:41;16.77;;;10.07;;
32523;SDS011;18965;52.242;20.886;2023-04-24T00:07:10;17.20;;;8.95;;
32523;SDS011;18965;52.242;20.886;2023-04-24T00:09:36;21.38;;;9.77;;
32523;SDS011;18965;52.242;20.886;2023-04-24T00:12:02;21.70;;;9.88;;
32523;SDS011;18965;52.242;20.886;2023-04-24T00:14:31;20.63;;;9.77;;
32523;SDS011;18965;52.242;20.886;2023-04-24T00:16:57;76.47;;;15.25;;
32523;SDS011;18965;52.242;20.886;2023-04-24T00:19:22;17.25;;;9.85;;
32523;SDS011;18965;52.242;20.886;2023-04-24T00:21:48;29.73;;;10.98;;
32523;SDS011;18965;52.242;20.886;2023-04-24T00:24:17;14.82;;;9.77;;
32523;SDS011;18965;52.242;20.886;2023-04-24T00:26:43;21.60;;;10.32;;
32523;SDS011;18965;52.242;20.886;2023-04-24T00:29:09;26.63;;;9.55;;
32523;SDS011;18965;52.242;20.886;2023-04-24T00:31:34;15.55;;;9.25;;
32523;SDS011;18965;52.242;20.886;2023-04-24T00:34:01;22.70;;;9.90;;
32523;SDS011;18965;52.242;20.886;2023-04-24T00:36:27;22.55;;;10.27;;
32523;SDS011;18965;52.242;20.886;2023-04-24T00:38:53;24.15;;;10.15;;
32523;SDS011;18965;52.242;20.886;2023-04-24T00:41:19;21.13;;;10.40;;
32523;SDS011;18965;52.242;20.886;2023-04-24T00:43:46;14.07;;;8.95;;
32523;SDS011;18965;52.242;20.886;2023-04-24T00:46:12;16.92;;;9.25;;
32523;SDS011;18965;52.242;20.886;2023-04-24T00:48:39;17.95;;;9.77;;
32523;SDS011;18965;52.242;20.886;2023-04-24T00:51:05;22.95;;;10.60;;
32523;SDS011;18965;52.242;20.886;2023-04-24T00:53:30;20.95;;;10.48;;
32523;SDS011;18965;52.242;20.886;2023-04-24T00:55:57;25.65;;;11.05;;
32523;SDS011;18965;52.242;20.886;2023-04-24T00:58:24;28.23;;;11.05;;
32523;SDS011;18965;52.242;20.886;2023-04-24T01:00:51;18.75;;;9.35;;
32523;SDS011;18965;52.242;20.886;2023-04-24T01:03:22;20.55;;;10.50;;
32523;SDS011;18965;52.242;20.886;2023-04-24T01:05:51;16.88;;;9.82;;
32523;SDS011;18965;52.242;20.886;2023-04-24T01:08:19;14.63;;;9.50;;
32523;SDS011;18965;52.242;20.886;2023-04-24T01:10:45;23.88;;;11.13;;
32523;SDS011;18965;52.242;20.886;2023-04-24T01:13:12;19.90;;;10.75;;
32523;SDS011;18965;52.242;20.886;2023-04-24T01:15:38;26.98;;;10.85;;
32523;SDS011;18965;52.242;20.886;2023-04-24T01:18:04;25.48;;;10.73;;
32523;SDS011;18965;52.242;20.886;2023-04-24T01:20:31;16.48;;;9.38;;
32523;SDS011;18965;52.242;20.886;2023-04-24T01:22:57;24.95;;;10.93;;
32523;SDS011;18965;52.242;20.886;2023-04-24T01:25:23;28.35;;;11.13;;
32523;SDS011;18965;52.242;20.886;2023-04-24T01:27:50;28.42;;;11.82;;
32523;SDS011;18965;52.242;20.886;2023-04-24T01:30:17;31.65;;;11.00;;
32523;SDS011;18965;52.242;20.886;2023-04-24T01:32:43;20.25;;;10.55;;
32523;SDS011;18965;52.242;20.886;2023-04-24T01:35:10;25.13;;;10.45;;
32523;SDS011;18965;52.242;20.886;2023-04-24T01:37:36;21.75;;;10.65;;
32523;SDS011;18965;52.242;20.886;2023-04-24T01:40:02;27.88;;;10.80;;
32523;SDS011;18965;52.242;20.886;2023-04-24T01:42:30;24.55;;;10.35;;
32523;SDS011;18965;52.242;20.886;2023-04-24T01:44:56;25.25;;;11.00;;
32523;SDS011;18965;52.242;20.886;2023-04-24T01:47:22;15.98;;;10.13;;
32523;SDS011;18965;52.242;20.886;2023-04-24T01:49:49;17.80;;;10.00;;
32523;SDS011;18965;52.242;20.886;2023-04-24T01:52:15;20.35;;;10.40;;
32523;SDS011;18965;52.242;20.886;2023-04-24T01:54:42;23.77;;;10.50;;
32523;SDS011;18965;52.242;20.886;2023-04-24T01:57:08;37.55;;;12.20;;
32523;SDS011;18965;52.242;20.886;2023-04-24T01:59:34;23.35;;;10.90;;
32523;SDS011;18965;52.242;20.886;2023-04-24T02:02:01;24.50;;;11.02;;
32523;SDS011;18965;52.242;20.886;2023-04-24T02:04:27;20.65;;;10.73;;
32523;SDS011;18965;52.242;20.886;2023-04-24T02:06:53;21.55;;;10.75;;
32523;SDS011;18965;52.242;20.886;2023-04-24T02:09:19;18.02;;;9.65;;
32523;SDS011;18965;52.242;20.886;2023-04-24T02:11:45;63.67;;;15.02;;
32523;SDS011;18965;52.242;20.886;2023-04-24T02:14:11;27.63;;;11.00;;
32523;SDS011;18965;52.242;20.886;2023-04-24T02:16:36;28.52;;;11.30;;
32523;SDS011;18965;52.242;20.886;2023-04-24T02:19:02;20.05;;;10.70;;
32523;SDS011;18965;52.242;20.886;2023-04-24T02:21:28;28.48;;;11.50;;
32523;SDS011;18965;52.242;20.886;2023-04-24T02:23:55;79.40;;;17.00;;
32523;SDS011;18965;52.242;20.886;2023-04-24T02:26:21;25.63;;;11.15;;
32523;SDS011;18965;52.242;20.886;2023-04-24T02:28:47;23.17;;;11.18;;
32523;SDS011;18965;52.242;20.886;2023-04-24T02:31:13;21.42;;;10.38;;
32523;SDS011;18965;52.242;20.886;2023-04-24T02:33:39;19.30;;;10.77;;
32523;SDS011;18965;52.242;20.886;2023-04-24T02:36:05;34.75;;;11.88;;
32523;SDS011;18965;52.242;20.886;2023-04-24T02:38:31;20.48;;;10.13;;
32523;SDS011;18965;52.242;20.886;2023-04-24T02:40:57;25.55;;;10.55;;
32523;SDS011;18965;52.242;20.886;2023-04-24T02:43:22;23.33;;;10.80;;
32523;SDS011;18965;52.242;20.886;2023-04-24T02:45:48;24.80;;;11.15;;
32523;SDS011;18965;52.242;20.886;2023-04-24T02:48:14;25.67;;;10.52;;
32523;SDS011;18965;52.242;20.886;2023-04-24T02:50:40;51.33;;;11.88;;
32523;SDS011;18965;52.242;20.886;2023-04-24T02:53:06;27.08;;;11.52;;
32523;SDS011;18965;52.242;20.886;2023-04-24T02:55:32;23.65;;;11.27;;
32523;SDS011;18965;52.242;20.886;2023-04-24T02:57:57;20.92;;;11.32;;
32523;SDS011;18965;52.242;20.886;2023-04-24T03:00:23;24.33;;;11.98;;
32523;SDS011;18965;52.242;20.886;2023-04-24T03:02:49;38.05;;;13.40;;
32523;SDS011;18965;52.242;20.886;2023-04-24T03:05:15;34.50;;;12.38;;
32523;SDS011;18965;52.242;20.886;2023-04-24T03:07:41;28.58;;;11.00;;
32523;SDS011;18965;52.242;20.886;2023-04-24T03:10:06;26.48;;;11.60;;
32523;SDS011;18965;52.242;20.886;2023-04-24T03:12:33;21.65;;;11.27;;
32523;SDS011;18965;52.242;20.886;2023-04-24T03:14:58;33.28;;;11.90;;
32523;SDS011;18965;52.242;20.886;2023-04-24T03:17:24;25.48;;;10.75;;
32523;SDS011;18965;52.242;20.886;2023-04-24T03:19:50;27.15;;;11.93;;
32523;SDS011;18965;52.242;20.886;2023-04-24T03:22:16;26.50;;;11.38;;
32523;SDS011;18965;52.242;20.886;2023-04-24T03:24:41;24.67;;;11.20;;
32523;SDS011;18965;52.242;20.886;2023-04-24T03:27:07;16.58;;;10.48;;
32523;SDS011;18965;52.242;20.886;2023-04-24T03:29:33;21.25;;;10.68;;
32523;SDS011;18965;52.242;20.886;2023-04-24T03:31:58;32.55;;;12.27;;
32523;SDS011;18965;52.242;20.886;2023-04-24T03:34:24;27.98;;;11.43;;
32523;SDS011;18965;52.242;20.886;2023-04-24T03:36:50;16.08;;;10.38;;
32523;SDS011;18965;52.242;20.886;2023-04-24T03:39:15;17.90;;;10.20;;
32523;SDS011;18965;52.242;20.886;2023-04-24T03:41:41;27.20;;;10.50;;
32523;SDS011;18965;52.242;20.886;2023-04-24T03:44:07;26.13;;;11.38;;
32523;SDS011;18965;52.242;20.886;2023-04-24T03:46:32;25.27;;;11.77;;
32523;SDS011;18965;52.242;20.886;2023-04-24T03:48:58;16.98;;;10.35;;
32523;SDS011;18965;52.242;20.886;2023-04-24T03:51:24;31.10;;;11.13;;
32523;SDS011;18965;52.242;20.886;2023-04-24T03:53:50;19.45;;;10.55;;
32523;SDS011;18965;52.242;20.886;2023-04-24T03:56:16;21.45;;;11.25;;
32523;SDS011;18965;52.242;20.886;2023-04-24T03:58:41;29.85;;;11.20;;
32523;SDS011;18965;52.242;20.886;2023-04-24T04:01:07;18.15;;;9.55;;
32523;SDS011;18965;52.242;20.886;2023-04-24T04:03:33;17.33;;;10.43;;
32523;SDS011;18965;52.242;20.886;2023-04-24T04:05:59;18.33;;;10.07;;
32523;SDS011;18965;52.242;20.886;2023-04-24T04:08:25;27.63;;;11.27;;
32523;SDS011;18965;52.242;20.886;2023-04-24T04:10:50;31.23;;;11.50;;
32523;SDS011;18965;52.242;20.886;2023-04-24T04:13:16;26.10;;;11.32;;
32523;SDS011;18965;52.242;20.886;2023-04-24T04:15:42;15.75;;;10.10;;
32523;SDS011;18965;52.242;20.886;2023-04-24T04:18:07;24.90;;;10.77;;
32523;SDS011;18965;52.242;20.886;2023-04-24T04:20:33;22.58;;;10.18;;
32523;SDS011;18965;52.242;20.886;2023-04-24T04:22:59;28.73;;;11.05;;
32523;SDS011;18965;52.242;20.886;2023-04-24T04:25:25;26.42;;;11.25;;
32523;SDS011;18965;52.242;20.886;2023-04-24T04:27:50;17.33;;;10.50;;
32523;SDS011;18965;52.242;20.886;2023-04-24T04:30:17;22.38;;;11.30;;
32523;SDS011;18965;52.242;20.886;2023-04-24T04:32:43;25.27;;;10.57;;
32523;SDS011;18965;52.242;20.886;2023-04-24T04:35:09;30.52;;;11.32;;
32523;SDS011;18965;52.242;20.886;2023-04-24T04:37:35;20.00;;;11.00;;
32523;SDS011;18965;52.242;20.886;2023-04-24T04:40:01;29.95;;;11.88;;
32523;SDS011;18965;52.242;20.886;2023-04-24T04:42:31;18.17;;;10.70;;
32523;SDS011;18965;52.242;20.886;2023-04-24T04:44:59;26.20;;;10.70;;
32523;SDS011;18965;52.242;20.886;2023-04-24T04:47:25;19.10;;;10.75;;
32523;SDS011;18965;52.242;20.886;2023-04-24T04:49:52;20.40;;;10.60;;
32523;SDS011;18965;52.242;20.886;2023-04-24T04:52:18;27.00;;;11.18;;
32523;SDS011;18965;52.242;20.886;2023-04-24T04:54:44;23.70;;;10.50;;
32523;SDS011;18965;52.242;20.886;2023-04-24T04:57:11;17.02;;;9.80;;
32523;SDS011;18965;52.242;20.886;2023-04-24T04:59:37;29.60;;;11.30;;
32523;SDS011;18965;52.242;20.886;2023-04-24T05:02:02;26.92;;;11.30;;
32523;SDS011;18965;52.242;20.886;2023-04-24T05:04:28;32.83;;;11.20;;
32523;SDS011;18965;52.242;20.886;2023-04-24T05:06:55;20.67;;;10.95;;
32523;SDS011;18965;52.242;20.886;2023-04-24T05:09:21;27.20;;;10.10;;
32523;SDS011;18965;52.242;20.886;2023-04-24T05:11:47;17.23;;;10.25;;
32523;SDS011;18965;52.242;20.886;2023-04-24T05:14:12;21.48;;;10.00;;
32523;SDS011;18965;52.242;20.886;2023-04-24T05:16:38;29.23;;;10.93;;
32523;SDS011;18965;52.242;20.886;2023-04-24T05:19:05;33.85;;;11.13;;
32523;SDS011;18965;52.242;20.886;2023-04-24T05:21:31;24.63;;;9.25;;
32523;SDS011;18965;52.242;20.886;2023-04-24T05:23:56;17.17;;;9.40;;
32523;SDS011;18965;52.242;20.886;2023-04-24T05:26:22;24.27;;;9.43;;
32523;SDS011;18965;52.242;20.886;2023-04-24T05:28:48;20.23;;;10.00;;
32523;SDS011;18965;52.242;20.886;2023-04-24T05:31:14;21.70;;;9.95;;
32523;SDS011;18965;52.242;20.886;2023-04-24T05:33:42;22.05;;;10.18;;
32523;SDS011;18965;52.242;20.886;2023-04-24T05:36:08;20.23;;;10.15;;
32523;SDS011;18965;52.242;20.886;2023-04-24T05:38:34;19.13;;;10.23;;
32523;SDS011;18965;52.242;20.886;2023-04-24T05:40:59;17.45;;;9.25;;
32523;SDS011;18965;52.242;20.886;2023-04-24T05:43:25;25.73;;;10.25;;
32523;SDS011;18965;52.242;20.886;2023-04-24T05:45:51;27.55;;;10.60;;
32523;SDS011;18965;52.242;20.886;2023-04-24T05:48:18;21.83;;;10.13;;
32523;SDS011;18965;52.242;20.886;2023-04-24T05:50:44;32.85;;;11.07;;
32523;SDS011;18965;52.242;20.886;2023-04-24T05:53:10;17.02;;;9.52;;
32523;SDS011;18965;52.242;20.886;2023-04-24T05:55:36;19.50;;;9.35;;
32523;SDS011;18965;52.242;20.886;2023-04-24T05:58:01;21.00;;;9.70;;
32523;SDS011;18965;52.242;20.886;2023-04-24T06:00:27;45.38;;;13.07;;
32523;SDS011;18965;52.242;20.886;2023-04-24T06:02:54;18.25;;;9.23;;
32523;SDS011;18965;52.242;20.886;2023-04-24T06:05:20;26.48;;;10.27;;
32523;SDS011;18965;52.242;20.886;2023-04-24T06:07:45;22.92;;;9.45;;
32523;SDS011;18965;52.242;20.886;2023-04-24T06:10:12;34.38;;;10.90;;
32523;SDS011;18965;52.242;20.886;2023-04-24T06:12:37;22.80;;;9.90;;
32523;SDS011;18965;52.242;20.886;2023-04-24T06:15:03;30.63;;;11.80;;
32523;SDS011;18965;52.242;20.886;2023-04-24T06:17:30;18.92;;;10.07;;
32523;SDS011;18965;52.242;20.886;2023-04-24T06:19:57;31.30;;;10.05;;
32523;SDS011;18965;52.242;20.886;2023-04-24T06:22:22;24.85;;;9.52;;
32523;SDS011;18965;52.242;20.886;2023-04-24T06:24:48;24.95;;;9.75;;
32523;SDS011;18965;52.242;20.886;2023-04-24T06:27:14;17.45;;;9.32;;
32523;SDS011;18965;52.242;20.886;2023-04-24T06:29:39;19.65;;;9.63;;
32523;SDS011;18965;52.242;20.886;2023-04-24T06:32:05;32.28;;;10.85;;
32523;SDS011;18965;52.242;20.886;2023-04-24T06:34:31;22.35;;;9.40;;
32523;SDS011;18965;52.242;20.886;2023-04-24T06:36:59;18.00;;;8.23;;
32523;SDS011;18965;52.242;20.886;2023-04-24T06:39:25;18.35;;;8.90;;
32523;SDS011;18965;52.242;20.886;2023-04-24T06:41:50;18.15;;;8.80;;
32523;SDS011;18965;52.242;20.886;2023-04-24T06:44:16;26.70;;;9.50;;
32523;SDS011;18965;52.242;20.886;2023-04-24T06:46:42;21.02;;;9.07;;
32523;SDS011;18965;52.242;20.886;2023-04-24T06:49:07;35.72;;;11.25;;
32523;SDS011;18965;52.242;20.886;2023-04-24T06:51:33;19.85;;;8.63;;
32523;SDS011;18965;52.242;20.886;2023-04-24T06:53:59;17.80;;;8.35;;
32523;SDS011;18965;52.242;20.886;2023-04-24T06:56:25;13.30;;;7.78;;
32523;SDS011;18965;52.242;20.886;2023-04-24T06:58:51;25.33;;;9.35;;
32523;SDS011;18965;52.242;20.886;2023-04-24T07:01:17;23.05;;;8.95;;
32523;SDS011;18965;52.242;20.886;2023-04-24T07:03:43;33.80;;;10.35;;
32523;SDS011;18965;52.242;20.886;2023-04-24T07:06:09;18.73;;;8.32;;
32523;SDS011;18965;52.242;20.886;2023-04-24T07:08:38;32.33;;;10.65;;
32523;SDS011;18965;52.242;20.886;2023-04-24T07:11:04;13.35;;;7.82;;
32523;SDS011;18965;52.242;20.886;2023-04-24T07:13:30;29.20;;;9.07;;
32523;SDS011;18965;52.242;20.886;2023-04-24T07:15:56;33.38;;;9.15;;
32523;SDS011;18965;52.242;20.886;2023-04-24T07:18:22;32.35;;;9.85;;
32523;SDS011;18965;52.242;20.886;2023-04-24T07:20:48;28.23;;;9.35;;
32523;SDS011;18965;52.242;20.886;2023-04-24T07:23:15;21.27;;;8.02;;
32523;SDS011;18965;52.242;20.886;2023-04-24T07:25:41;21.33;;;7.97;;
32523;SDS011;18965;52.242;20.886;2023-04-24T07:28:07;26.95;;;8.50;;
32523;SDS011;18965;52.242;20.886;2023-04-24T07:30:33;24.83;;;9.10;;
32523;SDS011;18965;52.242;20.886;2023-04-24T07:32:59;21.67;;;7.85;;
32523;SDS011;18965;52.242;20.886;2023-04-24T07:35:25;13.80;;;7.53;;
32523;SDS011;18965;52.242;20.886;2023-04-24T07:37:54;25.92;;;8.40;;
32523;SDS011;18965;52.242;20.886;2023-04-24T07:40:20;26.52;;;8.80;;
32523;SDS011;18965;52.242;20.886;2023-04-24T07:42:46;22.85;;;8.73;;
32523;SDS011;18965;52.242;20.886;2023-04-24T07:45:13;19.85;;;7.97;;
32523;SDS011;18965;52.242;20.886;2023-04-24T07:47:40;14.95;;;7.50;;
32523;SDS011;18965;52.242;20.886;2023-04-24T07:50:09;29.60;;;8.90;;
32523;SDS011;18965;52.242;20.886;2023-04-24T07:52:35;24.15;;;8.80;;
32523;SDS011;18965;52.242;20.886;2023-04-24T07:55:01;25.80;;;9.27;;
32523;SDS011;18965;52.242;20.886;2023-04-24T07:57:27;16.83;;;8.30;;
32523;SDS011;18965;52.242;20.886;2023-04-24T07:59:53;19.30;;;8.63;;
32523;SDS011;18965;52.242;20.886;2023-04-24T08:02:19;18.75;;;8.23;;
32523;SDS011;18965;52.242;20.886;2023-04-24T08:04:46;20.42;;;8.90;;
32523;SDS011;18965;52.242;20.886;2023-04-24T08:07:12;34.40;;;9.77;;
32523;SDS011;18965;52.242;20.886;2023-04-24T08:09:38;18.65;;;8.57;;
32523;SDS011;18965;52.242;20.886;2023-04-24T08:12:03;18.90;;;8.40;;
32523;SDS011;18965;52.242;20.886;2023-04-24T08:14:29;23.42;;;9.60;;
32523;SDS011;18965;52.242;20.886;2023-04-24T08:16:55;23.13;;;8.88;;
32523;SDS011;18965;52.242;20.886;2023-04-24T08:19:21;34.15;;;9.70;;
32523;SDS011;18965;52.242;20.886;2023-04-24T08:21:47;21.83;;;8.68;;
32523;SDS011;18965;52.242;20.886;2023-04-24T08:24:12;14.35;;;8.45;;
32523;SDS011;18965;52.242;20.886;2023-04-24T08:26:39;21.10;;;8.68;;
32523;SDS011;18965;52.242;20.886;2023-04-24T08:29:05;36.70;;;10.15;;
32523;SDS011;18965;52.242;20.886;2023-04-24T08:31:31;18.00;;;8.23;;
32523;SDS011;18965;52.242;20.886;2023-04-24T08:33:57;20.70;;;9.43;;
32523;SDS011;18965;52.242;20.886;2023-04-24T08:36:24;18.30;;;7.72;;
32523;SDS011;18965;52.242;20.886;2023-04-24T08:38:51;18.17;;;8.68;;
32523;SDS011;18965;52.242;20.886;2023-04-24T08:41:18;27.73;;;10.05;;
32523;SDS011;18965;52.242;20.886;2023-04-24T08:43:47;26.60;;;9.48;;
32523;SDS011;18965;52.242;20.886;2023-04-24T08:46:13;29.42;;;9.77;;
32523;SDS011;18965;52.242;20.886;2023-04-24T08:48:41;31.33;;;10.45;;
32523;SDS011;18965;52.242;20.886;2023-04-24T08:51:08;18.10;;;8.98;;
32523;SDS011;18965;52.242;20.886;2023-04-24T08:53:34;19.05;;;9.52;;
32523;SDS011;18965;52.242;20.886;2023-04-24T08:56:00;30.63;;;9.48;;
32523;SDS011;18965;52.242;20.886;2023-04-24T08:58:27;28.13;;;9.82;;
32523;SDS011;18965;52.242;20.886;2023-04-24T09:00:54;30.55;;;10.63;;
32523;SDS011;18965;52.242;20.886;2023-04-24T09:03:20;31.15;;;10.43;;
32523;SDS011;18965;52.242;20.886;2023-04-24T09:05:47;19.30;;;8.60;;
32523;SDS011;18965;52.242;20.886;2023-04-24T09:08:15;23.30;;;8.52;;
32523;SDS011;18965;52.242;20.886;2023-04-24T09:10:43;25.58;;;9.82;;
32523;SDS011;18965;52.242;20.886;2023-04-24T09:13:09;24.88;;;8.45;;
32523;SDS011;18965;52.242;20.886;2023-04-24T09:15:36;42.53;;;9.57;;
32523;SDS011;18965;52.242;20.886;2023-04-24T09:18:02;15.68;;;7.63;;
32523;SDS011;18965;52.242;20.886;2023-04-24T09:20:29;26.45;;;7.78;;
32523;SDS011;18965;52.242;20.886;2023-04-24T09:22:56;18.08;;;7.07;;
32523;SDS011;18965;52.242;20.886;2023-04-24T09:25:25;14.23;;;6.93;;
32523;SDS011;18965;52.242;20.886;2023-04-24T09:28:04;16.00;;;7.07;;
32523;SDS011;18965;52.242;20.886;2023-04-24T09:30:31;29.65;;;8.57;;
32523;SDS011;18965;52.242;20.886;2023-04-24T09:35:55;17.52;;;7.47;;
32523;SDS011;18965;52.242;20.886;2023-04-24T09:38:37;25.00;;;8.23;;
32523;SDS011;18965;52.242;20.886;2023-04-24T09:41:06;20.17;;;7.75;;
32523;SDS011;18965;52.242;20.886;2023-04-24T09:43:33;22.92;;;7.88;;
32523;SDS011;18965;52.242;20.886;2023-04-24T09:46:04;15.23;;;6.60;;
32523;SDS011;18965;52.242;20.886;2023-04-24T09:48:35;16.15;;;7.30;;
32523;SDS011;18965;52.242;20.886;2023-04-24T09:51:03;15.05;;;7.00;;
32523;SDS011;18965;52.242;20.886;2023-04-24T09:53:32;13.85;;;7.15;;
32523;SDS011;18965;52.242;20.886;2023-04-24T09:56:09;26.15;;;8.82;;
32523;SDS011;18965;52.242;20.886;2023-04-24T09:58:37;24.13;;;8.43;;
32523;SDS011;18965;52.242;20.886;2023-04-24T10:01:03;12.68;;;7.35;;
32523;SDS011;18965;52.242;20.886;2023-04-24T10:03:30;17.27;;;7.88;;
32523;SDS011;18965;52.242;20.886;2023-04-24T10:06:00;15.32;;;7.45;;
32523;SDS011;18965;52.242;20.886;2023-04-24T10:10:57;11.20;;;6.80;;
32523;SDS011;18965;52.242;20.886;2023-04-24T10:13:24;22.10;;;7.63;;
32523;SDS011;18965;52.242;20.886;2023-04-24T10:15:51;8.77;;;5.65;;
32523;SDS011;18965;52.242;20.886;2023-04-24T10:18:16;20.15;;;8.05;;
32523;SDS011;18965;52.242;20.886;2023-04-24T10:20:43;41.28;;;9.30;;
32523;SDS011;18965;52.242;20.886;2023-04-24T10:23:10;14.30;;;6.15;;
32523;SDS011;18965;52.242;20.886;2023-04-24T10:25:36;23.55;;;6.80;;
32523;SDS011;18965;52.242;20.886;2023-04-24T10:28:03;25.02;;;7.45;;
32523;SDS011;18965;52.242;20.886;2023-04-24T10:30:30;30.75;;;8.30;;
32523;SDS011;18965;52.242;20.886;2023-04-24T10:33:03;21.75;;;6.80;;
32523;SDS011;18965;52.242;20.886;2023-04-24T10:35:40;14.18;;;6.45;;
32523;SDS011;18965;52.242;20.886;2023-04-24T10:38:11;22.00;;;7.18;;
32523;SDS011;18965;52.242;20.886;2023-04-24T10:43:05;25.33;;;7.57;;
32523;SDS011;18965;52.242;20.886;2023-04-24T10:45:33;20.75;;;7.15;;
32523;SDS011;18965;52.242;20.886;2023-04-24T10:48:01;19.02;;;6.63;;
32523;SDS011;18965;52.242;20.886;2023-04-24T10:50:45;14.48;;;6.53;;
32523;SDS011;18965;52.242;20.886;2023-04-24T10:53:13;17.08;;;7.05;;
32523;SDS011;18965;52.242;20.886;2023-04-24T10:55:48;25.65;;;8.02;;
32523;SDS011;18965;52.242;20.886;2023-04-24T10:58:24;24.42;;;7.63;;
32523;SDS011;18965;52.242;20.886;2023-04-24T11:01:00;11.90;;;6.47;;
32523;SDS011;18965;52.242;20.886;2023-04-24T11:11:14;30.03;;;9.03;;
32523;SDS011;18965;52.242;20.886;2023-04-24T11:16:33;17.50;;;6.97;;
32523;SDS011;18965;52.242;20.886;2023-04-24T11:21:54;33.30;;;10.02;;
32523;SDS011;18965;52.242;20.886;2023-04-24T11:29:23;18.27;;;8.05;;
32523;SDS011;18965;52.242;20.886;2023-04-24T11:35:07;22.05;;;7.95;;
32523;SDS011;18965;52.242;20.886;2023-04-24T11:37:51;13.95;;;6.15;;
32523;SDS011;18965;52.242;20.886;2023-04-24T11:40:18;9.40;;;6.53;;
32523;SDS011;18965;52.242;20.886;2023-04-24T11:42:48;13.95;;;6.80;;
32523;SDS011;18965;52.242;20.886;2023-04-24T11:45:15;15.18;;;6.90;;
32523;SDS011;18965;52.242;20.886;2023-04-24T11:47:43;21.10;;;7.95;;
32523;SDS011;18965;52.242;20.886;2023-04-24T11:50:14;22.80;;;8.07;;
32523;SDS011;18965;52.242;20.886;2023-04-24T11:52:41;19.23;;;6.70;;
32523;SDS011;18965;52.242;20.886;2023-04-24T11:57:39;20.85;;;8.07;;
32523;SDS011;18965;52.242;20.886;2023-04-24T12:00:16;15.02;;;7.22;;
32523;SDS011;18965;52.242;20.886;2023-04-24T12:02:43;31.10;;;8.57;;
32523;SDS011;18965;52.242;20.886;2023-04-24T12:05:09;29.67;;;8.30;;
32523;SDS011;18965;52.242;20.886;2023-04-24T12:07:44;29.33;;;8.63;;
32523;SDS011;18965;52.242;20.886;2023-04-24T12:10:10;23.77;;;7.15;;
32523;SDS011;18965;52.242;20.886;2023-04-24T12:12:35;14.85;;;6.53;;
32523;SDS011;18965;52.242;20.886;2023-04-24T12:15:01;15.20;;;5.93;;
32523;SDS011;18965;52.242;20.886;2023-04-24T12:17:32;20.05;;;6.97;;
32523;SDS011;18965;52.242;20.886;2023-04-24T12:20:03;18.00;;;7.28;;
32523;SDS011;18965;52.242;20.886;2023-04-24T12:22:47;19.20;;;7.32;;
32523;SDS011;18965;52.242;20.886;2023-04-24T12:25:24;20.85;;;7.25;;
32523;SDS011;18965;52.242;20.886;2023-04-24T12:27:55;14.85;;;6.40;;
32523;SDS011;18965;52.242;20.886;2023-04-24T12:33:16;11.20;;;6.30;;
32523;SDS011;18965;52.242;20.886;2023-04-24T12:35:47;21.95;;;7.22;;
32523;SDS011;18965;52.242;20.886;2023-04-24T12:38:21;13.63;;;6.22;;
32523;SDS011;18965;52.242;20.886;2023-04-24T12:43:26;13.13;;;5.93;;
32523;SDS011;18965;52.242;20.886;2023-04-24T12:45:52;14.18;;;6.13;;
32523;SDS011;18965;52.242;20.886;2023-04-24T12:48:18;35.38;;;8.32;;
32523;SDS011;18965;52.242;20.886;2023-04-24T12:50:45;37.95;;;7.13;;
32523;SDS011;18965;52.242;20.886;2023-04-24T12:53:10;59.67;;;7.35;;
32523;SDS011;18965;52.242;20.886;2023-04-24T12:55:36;68.60;;;9.63;;
32523;SDS011;18965;52.242;20.886;2023-04-24T12:58:02;41.47;;;6.38;;
32523;SDS011;18965;52.242;20.886;2023-04-24T13:00:28;47.08;;;7.40;;
32523;SDS011;18965;52.242;20.886;2023-04-24T13:02:54;18.55;;;4.30;;
32523;SDS011;18965;52.242;20.886;2023-04-24T13:05:20;17.13;;;4.95;;
32523;SDS011;18965;52.242;20.886;2023-04-24T13:07:45;44.08;;;8.10;;
32523;SDS011;18965;52.242;20.886;2023-04-24T13:10:11;21.73;;;4.82;;
32523;SDS011;18965;52.242;20.886;2023-04-24T13:12:38;14.45;;;4.15;;
32523;SDS011;18965;52.242;20.886;2023-04-24T13:15:04;18.10;;;4.18;;
32523;SDS011;18965;52.242;20.886;2023-04-24T13:17:30;12.05;;;3.95;;
32523;SDS011;18965;52.242;20.886;2023-04-24T13:19:56;14.45;;;4.28;;
32523;SDS011;18965;52.242;20.886;2023-04-24T13:22:22;12.57;;;4.35;;
32523;SDS011;18965;52.242;20.886;2023-04-24T13:24:48;22.73;;;5.43;;
32523;SDS011;18965;52.242;20.886;2023-04-24T13:27:14;10.88;;;4.25;;
32523;SDS011;18965;52.242;20.886;2023-04-24T13:29:40;11.90;;;4.28;;
32523;SDS011;18965;52.242;20.886;2023-04-24T13:32:07;21.92;;;5.05;;
32523;SDS011;18965;52.242;20.886;2023-04-24T13:34:33;20.40;;;5.07;;
32523;SDS011;18965;52.242;20.886;2023-04-24T13:37:02;14.77;;;4.50;;
32523;SDS011;18965;52.242;20.886;2023-04-24T13:39:28;23.08;;;4.78;;
32523;SDS011;18965;52.242;20.886;2023-04-24T13:41:54;12.65;;;4.20;;
32523;SDS011;18965;52.242;20.886;2023-04-24T13:44:21;19.20;;;5.03;;
32523;SDS011;18965;52.242;20.886;2023-04-24T13:46:48;36.50;;;7.15;;
32523;SDS011;18965;52.242;20.886;2023-04-24T13:49:15;24.65;;;5.35;;
32523;SDS011;18965;52.242;20.886;2023-04-24T13:51:41;13.82;;;4.68;;
32523;SDS011;18965;52.242;20.886;2023-04-24T13:54:08;25.60;;;5.60;;
32523;SDS011;18965;52.242;20.886;2023-04-24T13:56:33;10.60;;;4.20;;
32523;SDS011;18965;52.242;20.886;2023-04-24T13:58:59;16.75;;;5.18;;
32523;SDS011;18965;52.242;20.886;2023-04-24T14:01:25;23.08;;;5.13;;
32523;SDS011;18965;52.242;20.886;2023-04-24T14:03:51;14.55;;;4.70;;
32523;SDS011;18965;52.242;20.886;2023-04-24T14:06:18;7.00;;;3.97;;
32523;SDS011;18965;52.242;20.886;2023-04-24T14:08:44;18.98;;;5.40;;
32523;SDS011;18965;52.242;20.886;2023-04-24T14:11:10;14.85;;;5.05;;
32523;SDS011;18965;52.242;20.886;2023-04-24T14:13:36;18.23;;;5.82;;
32523;SDS011;18965;52.242;20.886;2023-04-24T14:16:02;12.65;;;4.70;;
32523;SDS011;18965;52.242;20.886;2023-04-24T14:18:29;12.25;;;4.80;;
32523;SDS011;18965;52.242;20.886;2023-04-24T14:20:54;19.48;;;5.32;;
32523;SDS011;18965;52.242;20.886;2023-04-24T14:23:20;15.80;;;5.32;;
32523;SDS011;18965;52.242;20.886;2023-04-24T14:25:46;8.35;;;4.72;;
32523;SDS011;18965;52.242;20.886;2023-04-24T14:28:15;21.00;;;6.38;;
32523;SDS011;18965;52.242;20.886;2023-04-24T14:30:42;17.23;;;5.38;;
32523;SDS011;18965;52.242;20.886;2023-04-24T14:33:08;13.63;;;5.13;;
32523;SDS011;18965;52.242;20.886;2023-04-24T14:35:34;15.10;;;4.93;;
32523;SDS011;18965;52.242;20.886;2023-04-24T14:38:00;19.33;;;5.43;;
32523;SDS011;18965;52.242;20.886;2023-04-24T14:40:26;13.23;;;4.68;;
32523;SDS011;18965;52.242;20.886;2023-04-24T14:42:52;13.63;;;5.05;;
32523;SDS011;18965;52.242;20.886;2023-04-24T14:45:18;10.25;;;4.13;;
32523;SDS011;18965;52.242;20.886;2023-04-24T14:47:44;12.75;;;4.30;;
32523;SDS011;18965;52.242;20.886;2023-04-24T14:50:10;28.50;;;6.55;;
32523;SDS011;18965;52.242;20.886;2023-04-24T14:52:37;20.13;;;5.55;;